createdAt,value
2018-11-05T00:00:15.798Z,9.83
2018-11-05T00:01:21.330Z,9.86
2018-11-05T00:02:26.865Z,9.90
2018-11-05T00:03:32.400Z,9.91
2018-11-05T00:04:37.937Z,9.90
2018-11-05T00:05:43.477Z,9.84
2018-11-05T00:06:49.011Z,9.97
2018-11-05T00:07:54.547Z,9.90
2018-11-05T00:09:00.085Z,9.90
2018-11-05T00:10:05.617Z,9.84
2018-11-05T00:11:11.157Z,9.84
2018-11-05T00:12:16.692Z,9.83
2018-11-05T00:13:22.233Z,9.89
2018-11-05T00:14:27.765Z,9.86
2018-11-05T00:15:33.304Z,9.90
2018-11-05T00:16:38.837Z,9.90
2018-11-05T00:17:44.378Z,9.87
2018-11-05T00:18:49.910Z,9.83
2018-11-05T00:19:55.450Z,9.84
2018-11-05T00:21:00.985Z,9.89
2018-11-05T00:22:06.521Z,9.84
2018-11-05T00:23:12.058Z,9.87
2018-11-05T00:24:17.597Z,9.84
2018-11-05T00:25:23.131Z,9.84
2018-11-05T00:26:28.675Z,9.83
2018-11-05T00:27:34.204Z,9.89
2018-11-05T00:28:39.740Z,9.90
2018-11-05T00:29:45.274Z,9.86
2018-11-05T00:30:50.813Z,9.86
2018-11-05T00:31:56.347Z,9.90
2018-11-05T00:33:01.892Z,9.91
2018-11-05T00:34:07.421Z,9.87
2018-11-05T00:35:12.964Z,9.91
2018-11-05T00:36:18.493Z,9.99
2018-11-05T00:37:24.032Z,9.94
2018-11-05T00:38:29.567Z,9.94
2018-11-05T00:39:35.102Z,9.97
2018-11-05T00:40:40.648Z,9.86
2018-11-05T00:41:46.176Z,9.97
2018-11-05T00:42:51.712Z,9.91
2018-11-05T00:43:57.250Z,9.94
2018-11-05T00:45:02.787Z,9.93
2018-11-05T00:46:08.322Z,9.90
2018-11-05T00:47:13.865Z,9.93
2018-11-05T00:48:19.397Z,9.93
2018-11-05T00:49:24.934Z,9.93
2018-11-05T00:50:30.466Z,9.91
2018-11-05T00:51:36.006Z,9.94
2018-11-05T00:52:41.542Z,9.94
2018-11-05T00:53:47.077Z,9.97
2018-11-05T00:54:52.622Z,9.96
2018-11-05T00:55:58.160Z,9.93
2018-11-05T00:57:03.691Z,9.96
2018-11-05T00:58:09.223Z,9.90
2018-11-05T00:59:14.761Z,9.93
2018-11-05T01:00:20.300Z,9.93
2018-11-05T01:01:25.838Z,9.99
2018-11-05T01:02:31.372Z,9.93
2018-11-05T01:03:36.907Z,9.94
2018-11-05T01:04:42.444Z,9.96
2018-11-05T01:05:47.977Z,9.94
2018-11-05T01:06:53.517Z,9.94
2018-11-05T01:07:59.051Z,9.93
2018-11-05T01:09:04.591Z,9.96
2018-11-05T01:10:10.127Z,9.99
2018-11-05T01:11:15.662Z,9.97
2018-11-05T01:12:21.197Z,10.09
2018-11-05T01:13:26.736Z,9.94
2018-11-05T01:14:32.270Z,10.08
2018-11-05T01:15:37.804Z,10.07
2018-11-05T01:16:43.343Z,9.99
2018-11-05T01:17:48.877Z,10.09
2018-11-05T01:18:54.420Z,9.97
2018-11-05T01:19:59.951Z,9.94
2018-11-05T01:21:05.492Z,10.05
2018-11-05T01:22:11.026Z,10.04
2018-11-05T01:23:16.558Z,10.07
2018-11-05T01:24:22.102Z,10.05
2018-11-05T01:25:27.632Z,9.96
2018-11-05T01:26:33.168Z,10.07
2018-11-05T01:27:38.707Z,10.14
2018-11-05T01:28:44.239Z,9.94
2018-11-05T01:29:49.779Z,10.08
2018-11-05T01:30:55.320Z,10.04
2018-11-05T01:32:00.855Z,10.04
2018-11-05T01:33:06.386Z,10.11
2018-11-05T01:34:11.932Z,10.08
2018-11-05T01:35:17.464Z,9.97
2018-11-05T01:36:23.001Z,10.11
2018-11-05T01:37:28.531Z,10.07
2018-11-05T01:38:34.071Z,10.02
2018-11-05T01:39:39.602Z,10.11
2018-11-05T01:40:45.145Z,10.09
2018-11-05T01:41:50.680Z,10.08
2018-11-05T01:42:56.219Z,10.08
2018-11-05T01:44:01.749Z,10.07
2018-11-05T01:45:07.285Z,10.07
2018-11-05T01:46:12.821Z,10.02
2018-11-05T01:47:18.359Z,10.04
2018-11-05T01:48:23.896Z,10.07
2018-11-05T01:49:29.431Z,10.09
2018-11-05T01:50:34.967Z,10.08
2018-11-05T01:51:40.509Z,10.08
2018-11-05T01:52:46.042Z,10.04
2018-11-05T01:53:51.576Z,10.01
2018-11-05T01:54:57.115Z,10.04
2018-11-05T01:56:02.647Z,10.02
2018-11-05T01:57:08.187Z,10.02
2018-11-05T01:58:13.721Z,10.07
2018-11-05T01:59:19.264Z,10.04
2018-11-05T02:00:24.797Z,10.09
2018-11-05T02:01:30.332Z,10.05
2018-11-05T02:02:35.866Z,10.04
2018-11-05T02:03:41.403Z,10.05
2018-11-05T02:04:46.939Z,10.07
2018-11-05T02:05:52.485Z,10.09
2018-11-05T02:06:58.013Z,10.05
2018-11-05T02:08:03.548Z,10.04
2018-11-05T02:09:09.085Z,10.09
2018-11-05T02:10:14.641Z,10.07
2018-11-05T02:11:20.161Z,10.04
2018-11-05T02:12:25.697Z,10.12
2018-11-05T02:13:31.299Z,10.12
2018-11-05T02:14:36.770Z,10.04
2018-11-05T02:15:42.310Z,9.97
2018-11-05T02:16:47.839Z,10.04
2018-11-05T02:17:53.377Z,10.02
2018-11-05T02:18:58.913Z,10.01
2018-11-05T02:20:04.448Z,10.08
2018-11-05T02:21:09.995Z,10.07
2018-11-05T02:22:15.521Z,10.04
2018-11-05T02:23:21.092Z,10.12
2018-11-05T02:24:26.595Z,10.15
2018-11-05T02:25:32.136Z,10.14
2018-11-05T02:26:37.669Z,10.14
2018-11-05T02:27:43.215Z,10.07
2018-11-05T02:28:48.742Z,10.07
2018-11-05T02:29:54.283Z,10.11
2018-11-05T02:30:59.817Z,10.09
2018-11-05T02:32:05.350Z,10.09
2018-11-05T02:33:10.890Z,10.08
2018-11-05T02:34:16.423Z,10.08
2018-11-05T02:35:21.962Z,10.12
2018-11-05T02:36:27.500Z,10.07
2018-11-05T02:37:33.038Z,10.12
2018-11-05T02:38:38.569Z,10.05
2018-11-05T02:39:44.111Z,10.18
2018-11-05T02:40:49.650Z,10.14
2018-11-05T02:41:55.186Z,10.12
2018-11-05T02:43:00.717Z,10.17
2018-11-05T02:44:06.258Z,10.09
2018-11-05T02:45:11.800Z,10.11
2018-11-05T02:46:17.327Z,10.11
2018-11-05T02:47:22.867Z,10.09
2018-11-05T02:48:28.399Z,10.20
2018-11-05T02:49:33.933Z,10.12
2018-11-05T02:50:39.478Z,10.09
2018-11-05T02:51:45.009Z,10.08
2018-11-05T02:52:50.552Z,10.11
2018-11-05T02:53:56.088Z,10.12
2018-11-05T02:55:01.624Z,10.17
2018-11-05T02:56:07.155Z,10.14
2018-11-05T02:57:12.691Z,10.08
2018-11-05T02:58:18.229Z,10.18
2018-11-05T02:59:23.765Z,10.15
2018-11-05T03:00:29.301Z,10.14
2018-11-05T03:01:34.841Z,10.11
2018-11-05T03:02:40.374Z,10.17
2018-11-05T03:03:45.914Z,10.20
2018-11-05T03:04:51.446Z,10.22
2018-11-05T03:05:56.983Z,10.18
2018-11-05T03:07:02.523Z,10.22
2018-11-05T03:08:08.054Z,10.15
2018-11-05T03:09:13.594Z,10.11
2018-11-05T03:10:19.131Z,10.20
2018-11-05T03:11:24.670Z,10.23
2018-11-05T03:12:30.208Z,10.22
2018-11-05T03:13:35.740Z,10.18
2018-11-05T03:14:41.281Z,10.20
2018-11-05T03:15:46.815Z,10.22
2018-11-05T03:16:52.349Z,10.20
2018-11-05T03:17:57.889Z,10.20
2018-11-05T03:19:03.425Z,10.11
2018-11-05T03:20:08.956Z,10.18
2018-11-05T03:21:14.500Z,10.14
2018-11-05T03:22:20.029Z,10.15
2018-11-05T03:23:25.566Z,10.17
2018-11-05T03:24:31.103Z,10.18
2018-11-05T03:25:36.641Z,10.22
2018-11-05T03:26:42.174Z,10.20
2018-11-05T03:27:47.721Z,10.25
2018-11-05T03:28:53.253Z,10.29
2018-11-05T03:29:58.782Z,10.27
2018-11-05T03:31:04.329Z,10.23
2018-11-05T03:32:09.859Z,10.25
2018-11-05T03:33:15.397Z,10.29
2018-11-05T03:34:20.933Z,10.26
2018-11-05T03:35:26.473Z,10.22
2018-11-05T03:36:32.009Z,10.32
2018-11-05T03:37:37.543Z,10.26
2018-11-05T03:38:43.076Z,10.26
2018-11-05T03:39:48.617Z,10.26
2018-11-05T03:40:54.151Z,10.30
2018-11-05T03:41:59.693Z,10.29
2018-11-05T03:43:05.227Z,10.32
2018-11-05T03:44:10.763Z,10.29
2018-11-05T03:45:16.298Z,10.26
2018-11-05T03:46:21.834Z,10.30
2018-11-05T03:47:27.373Z,10.33
2018-11-05T03:48:32.909Z,10.30
2018-11-05T03:49:38.446Z,10.25
2018-11-05T03:50:43.983Z,10.27
2018-11-05T03:51:49.517Z,10.25
2018-11-05T03:52:55.060Z,10.27
2018-11-05T03:54:00.591Z,10.27
2018-11-05T03:55:06.128Z,10.30
2018-11-05T03:56:11.766Z,10.29
2018-11-05T03:57:17.201Z,10.26
2018-11-05T03:58:22.736Z,10.30
2018-11-05T03:59:28.274Z,10.30
2018-11-05T04:00:33.809Z,10.29
2018-11-05T04:01:39.346Z,10.29
2018-11-05T04:02:44.883Z,10.26
2018-11-05T04:03:50.416Z,10.30
2018-11-05T04:04:55.955Z,10.27
2018-11-05T04:06:01.499Z,10.38
2018-11-05T04:07:07.026Z,10.29
2018-11-05T04:08:12.567Z,10.27
2018-11-05T04:09:18.105Z,10.26
2018-11-05T04:10:23.643Z,10.41
2018-11-05T04:11:29.179Z,10.32
2018-11-05T04:12:34.711Z,10.32
2018-11-05T04:13:40.249Z,10.40
2018-11-05T04:14:45.785Z,10.41
2018-11-05T04:15:51.360Z,10.33
2018-11-05T04:16:56.858Z,10.32
2018-11-05T04:18:02.392Z,10.34
2018-11-05T04:19:07.931Z,10.33
2018-11-05T04:20:13.469Z,10.25
2018-11-05T04:21:19.004Z,10.38
2018-11-05T04:22:24.539Z,10.29
2018-11-05T04:23:30.075Z,10.30
2018-11-05T04:24:35.616Z,10.32
2018-11-05T04:25:41.152Z,10.32
2018-11-05T04:26:46.688Z,10.41
2018-11-05T04:27:52.253Z,10.33
2018-11-05T04:28:57.757Z,10.36
2018-11-05T04:30:03.296Z,10.36
2018-11-05T04:31:08.833Z,10.40
2018-11-05T04:32:14.370Z,10.38
2018-11-05T04:33:19.909Z,10.41
2018-11-05T04:34:25.450Z,10.38
2018-11-05T04:35:30.983Z,10.36
2018-11-05T04:36:36.516Z,10.41
2018-11-05T04:37:42.063Z,10.38
2018-11-05T04:38:47.593Z,10.41
2018-11-05T04:39:53.134Z,10.42
2018-11-05T04:40:58.660Z,10.47
2018-11-05T04:42:04.207Z,10.36
2018-11-05T04:43:09.741Z,10.45
2018-11-05T04:44:15.269Z,10.47
2018-11-05T04:45:20.812Z,10.45
2018-11-05T04:46:26.344Z,10.47
2018-11-05T04:47:31.881Z,10.52
2018-11-05T04:48:37.422Z,10.53
2018-11-05T04:49:42.971Z,10.45
2018-11-05T04:50:48.498Z,10.44
2018-11-05T04:51:54.027Z,10.47
2018-11-05T04:52:59.572Z,10.44
2018-11-05T04:54:05.101Z,10.45
2018-11-05T04:55:10.634Z,10.51
2018-11-05T04:56:16.173Z,10.38
2018-11-05T04:57:21.708Z,10.47
2018-11-05T04:58:27.255Z,10.44
2018-11-05T04:59:32.787Z,10.48
2018-11-05T05:00:38.321Z,10.45
2018-11-05T05:01:43.862Z,10.42
2018-11-05T05:02:49.395Z,10.42
2018-11-05T05:03:54.928Z,10.44
2018-11-05T05:05:00.467Z,10.41
2018-11-05T05:06:06.009Z,10.42
2018-11-05T05:07:11.543Z,10.47
2018-11-05T05:08:17.078Z,10.44
2018-11-05T05:09:22.615Z,10.47
2018-11-05T05:10:28.152Z,10.45
2018-11-05T05:11:33.687Z,10.42
2018-11-05T05:12:39.229Z,10.48
2018-11-05T05:13:44.763Z,10.51
2018-11-05T05:14:50.296Z,10.51
2018-11-05T05:15:55.850Z,10.56
2018-11-05T05:17:01.370Z,10.56
2018-11-05T05:18:06.911Z,10.51
2018-11-05T05:19:12.446Z,10.56
2018-11-05T05:20:17.980Z,10.56
2018-11-05T05:21:23.518Z,10.52
2018-11-05T05:22:29.130Z,10.55
2018-11-05T05:23:34.586Z,10.53
2018-11-05T05:24:40.129Z,10.52
2018-11-05T05:25:45.663Z,10.51
2018-11-05T05:26:51.200Z,10.52
2018-11-05T05:27:56.738Z,10.52
2018-11-05T05:29:02.272Z,10.53
2018-11-05T05:30:07.807Z,10.55
2018-11-05T05:31:13.345Z,10.60
2018-11-05T05:32:18.881Z,10.56
2018-11-05T05:33:24.437Z,10.60
2018-11-05T05:34:29.954Z,10.59
2018-11-05T05:35:35.494Z,10.56
2018-11-05T05:36:41.027Z,10.59
2018-11-05T05:37:46.565Z,10.48
2018-11-05T05:38:52.101Z,10.60
2018-11-05T05:39:57.636Z,10.51
2018-11-05T05:41:03.176Z,10.56
2018-11-05T05:42:08.709Z,10.55
2018-11-05T05:43:14.247Z,10.56
2018-11-05T05:44:19.781Z,10.63
2018-11-05T05:45:25.318Z,10.59
2018-11-05T05:46:30.856Z,10.61
2018-11-05T05:47:36.390Z,10.59
2018-11-05T05:48:41.929Z,10.63
2018-11-05T05:49:47.490Z,10.56
2018-11-05T05:50:53.002Z,10.63
2018-11-05T05:51:58.539Z,10.61
2018-11-05T05:53:04.080Z,10.63
2018-11-05T05:54:09.614Z,10.64
2018-11-05T05:55:15.150Z,10.60
2018-11-05T05:56:20.685Z,10.59
2018-11-05T05:57:26.224Z,10.60
2018-11-05T05:58:31.757Z,10.56
2018-11-05T05:59:37.296Z,10.63
2018-11-05T06:00:42.832Z,10.63
2018-11-05T06:01:48.370Z,10.59
2018-11-05T06:02:53.905Z,10.60
2018-11-05T06:03:59.444Z,10.63
2018-11-05T06:05:04.984Z,10.59
2018-11-05T06:06:10.557Z,10.60
2018-11-05T06:07:16.053Z,10.61
2018-11-05T06:08:21.598Z,10.59
2018-11-05T06:09:27.129Z,10.64
2018-11-05T06:10:32.662Z,10.60
2018-11-05T06:11:38.201Z,10.61
2018-11-05T06:12:43.734Z,10.59
2018-11-05T06:13:49.276Z,10.56
2018-11-05T06:14:54.812Z,10.60
2018-11-05T06:16:00.437Z,10.66
2018-11-05T06:17:05.884Z,10.56
2018-11-05T06:18:11.418Z,10.66
2018-11-05T06:19:16.957Z,10.63
2018-11-05T06:20:22.493Z,10.61
2018-11-05T06:21:28.032Z,10.63
2018-11-05T06:22:33.576Z,10.60
2018-11-05T06:23:39.110Z,10.67
2018-11-05T06:24:44.647Z,10.63
2018-11-05T06:25:50.177Z,10.60
2018-11-05T06:26:55.716Z,10.61
2018-11-05T06:28:01.252Z,10.64
2018-11-05T06:29:06.789Z,10.71
2018-11-05T06:30:12.325Z,10.73
2018-11-05T06:31:17.863Z,10.61
2018-11-05T06:32:23.397Z,10.68
2018-11-05T06:33:28.937Z,10.76
2018-11-05T06:34:34.475Z,10.74
2018-11-05T06:35:40.009Z,10.66
2018-11-05T06:36:45.548Z,10.61
2018-11-05T06:37:51.084Z,10.73
2018-11-05T06:38:56.625Z,10.73
2018-11-05T06:40:02.157Z,10.74
2018-11-05T06:41:07.761Z,10.70
2018-11-05T06:42:13.237Z,10.71
2018-11-05T06:43:18.771Z,10.66
2018-11-05T06:44:24.312Z,10.70
2018-11-05T06:45:29.854Z,10.73
2018-11-05T06:46:35.375Z,10.71
2018-11-05T06:47:40.913Z,10.71
2018-11-05T06:48:46.458Z,10.76
2018-11-05T06:49:51.990Z,10.68
2018-11-05T06:50:57.530Z,10.64
2018-11-05T06:52:03.058Z,10.76
2018-11-05T06:53:08.592Z,10.76
2018-11-05T06:54:14.139Z,10.79
2018-11-05T06:55:19.673Z,10.73
2018-11-05T06:56:25.209Z,10.71
2018-11-05T06:57:30.776Z,10.68
2018-11-05T06:58:36.294Z,10.71
2018-11-05T06:59:41.821Z,10.74
2018-11-05T07:00:47.401Z,10.78
2018-11-05T07:01:52.890Z,10.68
2018-11-05T07:02:58.429Z,10.67
2018-11-05T07:04:03.969Z,10.71
2018-11-05T07:05:09.501Z,10.70
2018-11-05T07:06:15.046Z,10.74
2018-11-05T07:07:20.580Z,10.70
2018-11-05T07:08:26.113Z,10.81
2018-11-05T07:09:31.649Z,10.71
2018-11-05T07:10:37.189Z,10.78
2018-11-05T07:11:42.724Z,10.74
2018-11-05T07:12:48.260Z,10.71
2018-11-05T07:13:53.796Z,10.73
2018-11-05T07:14:59.334Z,10.73
2018-11-05T07:16:04.873Z,10.76
2018-11-05T07:17:10.408Z,10.79
2018-11-05T07:18:15.993Z,10.76
2018-11-05T07:19:21.486Z,10.71
2018-11-05T07:20:27.021Z,10.81
2018-11-05T07:21:32.554Z,10.73
2018-11-05T07:22:38.089Z,10.81
2018-11-05T07:23:43.627Z,10.81
2018-11-05T07:24:49.164Z,10.81
2018-11-05T07:25:54.709Z,10.76
2018-11-05T07:27:00.241Z,10.86
2018-11-05T07:28:05.773Z,10.85
2018-11-05T07:29:11.313Z,10.88
2018-11-05T07:30:16.852Z,10.86
2018-11-05T07:31:22.392Z,10.91
2018-11-05T07:32:27.932Z,10.86
2018-11-05T07:33:33.617Z,10.86
2018-11-05T07:34:38.993Z,10.88
2018-11-05T07:35:44.539Z,10.79
2018-11-05T07:36:50.073Z,10.86
2018-11-05T07:37:55.612Z,10.91
2018-11-05T07:39:01.150Z,10.94
2018-11-05T07:40:06.687Z,10.78
2018-11-05T07:41:12.219Z,10.84
2018-11-05T07:42:17.754Z,10.79
2018-11-05T07:43:23.292Z,10.88
2018-11-05T07:44:28.832Z,10.78
2018-11-05T07:45:34.366Z,10.78
2018-11-05T07:46:39.903Z,10.78
2018-11-05T07:47:45.439Z,10.82
2018-11-05T07:48:50.983Z,10.84
2018-11-05T07:49:56.532Z,10.84
2018-11-05T07:51:02.049Z,10.84
2018-11-05T07:52:07.591Z,10.85
2018-11-05T07:53:13.126Z,10.84
2018-11-05T07:54:18.659Z,10.91
2018-11-05T07:55:24.201Z,10.86
2018-11-05T07:56:29.735Z,10.97
2018-11-05T07:57:35.278Z,10.84
2018-11-05T07:58:40.810Z,10.86
2018-11-05T07:59:46.344Z,10.88
2018-11-05T08:00:51.880Z,10.84
2018-11-05T08:01:57.418Z,10.91
2018-11-05T08:03:03.082Z,10.91
2018-11-05T08:04:08.490Z,10.88
2018-11-05T08:05:14.037Z,10.88
2018-11-05T08:06:19.571Z,10.96
2018-11-05T08:07:25.099Z,10.96
2018-11-05T08:08:30.712Z,10.91
2018-11-05T08:09:36.183Z,10.97
2018-11-05T08:10:41.718Z,10.89
2018-11-05T08:11:47.264Z,10.94
2018-11-05T08:12:52.822Z,10.91
2018-11-05T08:13:58.327Z,10.89
2018-11-05T08:15:03.863Z,10.91
2018-11-05T08:16:09.402Z,10.92
2018-11-05T08:17:14.943Z,10.96
2018-11-05T08:18:20.474Z,10.97
2018-11-05T08:19:26.007Z,10.86
2018-11-05T08:20:31.549Z,10.97
2018-11-05T08:21:37.088Z,10.91
2018-11-05T08:22:42.619Z,10.91
2018-11-05T08:23:48.159Z,10.92
2018-11-05T08:24:53.694Z,11.00
2018-11-05T08:25:59.234Z,10.99
2018-11-05T08:27:04.770Z,11.00
2018-11-05T08:28:10.305Z,11.06
2018-11-05T08:29:15.842Z,11.06
2018-11-05T08:30:21.386Z,11.09
2018-11-05T08:31:26.921Z,11.09
2018-11-05T08:32:32.463Z,11.03
2018-11-05T08:33:37.992Z,11.02
2018-11-05T08:34:43.528Z,10.99
2018-11-05T08:35:49.068Z,11.03
2018-11-05T08:36:54.608Z,11.11
2018-11-05T08:38:00.143Z,11.09
2018-11-05T08:39:05.682Z,11.07
2018-11-05T08:40:11.224Z,11.03
2018-11-05T08:41:16.758Z,11.06
2018-11-05T08:42:22.289Z,11.04
2018-11-05T08:43:27.825Z,11.09
2018-11-05T08:44:33.365Z,11.14
2018-11-05T08:45:38.898Z,11.10
2018-11-05T08:46:44.447Z,11.15
2018-11-05T08:47:49.982Z,11.11
2018-11-05T08:48:55.514Z,11.09
2018-11-05T08:50:01.113Z,11.11
2018-11-05T08:51:06.737Z,11.09
2018-11-05T08:52:12.118Z,11.15
2018-11-05T08:53:17.661Z,11.11
2018-11-05T08:54:23.190Z,11.10
2018-11-05T08:55:28.734Z,11.15
2018-11-05T08:56:34.270Z,11.15
2018-11-05T08:57:39.865Z,11.17
2018-11-05T08:58:45.341Z,11.24
2018-11-05T08:59:50.884Z,11.17
2018-11-05T09:00:56.452Z,11.14
2018-11-05T09:02:01.950Z,11.24
2018-11-05T09:03:07.495Z,11.27
2018-11-05T09:04:13.031Z,11.21
2018-11-05T09:05:18.671Z,11.25
2018-11-05T09:06:24.100Z,11.24
2018-11-05T09:07:29.637Z,11.28
2018-11-05T09:08:35.174Z,11.27
2018-11-05T09:09:40.718Z,11.32
2018-11-05T09:10:46.586Z,11.29
2018-11-05T09:11:51.806Z,11.36
2018-11-05T09:12:57.324Z,11.29
2018-11-05T09:14:02.858Z,11.37
2018-11-05T09:15:08.395Z,11.37
2018-11-05T09:16:14.001Z,11.35
2018-11-05T09:17:19.472Z,11.29
2018-11-05T09:18:25.007Z,11.42
2018-11-05T09:19:30.550Z,11.42
2018-11-05T09:20:36.123Z,11.35
2018-11-05T09:21:41.621Z,11.43
2018-11-05T09:22:47.157Z,11.37
2018-11-05T09:23:52.698Z,11.42
2018-11-05T09:24:58.232Z,11.37
2018-11-05T09:26:03.774Z,11.43
2018-11-05T09:27:09.302Z,11.35
2018-11-05T09:28:14.842Z,11.33
2018-11-05T09:29:20.379Z,11.35
2018-11-05T09:30:25.931Z,11.40
2018-11-05T09:31:31.455Z,11.44
2018-11-05T09:32:36.993Z,11.39
2018-11-05T09:33:42.529Z,11.40
2018-11-05T09:34:48.070Z,11.40
2018-11-05T09:35:53.607Z,11.44
2018-11-05T09:36:59.143Z,11.42
2018-11-05T09:38:04.680Z,11.39
2018-11-05T09:39:10.213Z,11.47
2018-11-05T09:40:15.753Z,11.43
2018-11-05T09:41:21.288Z,11.47
2018-11-05T09:42:26.834Z,11.57
2018-11-05T09:43:32.362Z,11.42
2018-11-05T09:44:37.904Z,11.51
2018-11-05T09:45:43.442Z,11.51
2018-11-05T09:46:48.976Z,11.47
2018-11-05T09:47:54.516Z,11.54
2018-11-05T09:49:00.057Z,11.49
2018-11-05T09:50:05.592Z,11.49
2018-11-05T09:51:11.125Z,11.51
2018-11-05T09:52:16.658Z,11.51
2018-11-05T09:53:22.199Z,11.52
2018-11-05T09:54:27.734Z,11.52
2018-11-05T09:55:33.309Z,11.57
2018-11-05T09:56:38.808Z,11.55
2018-11-05T09:57:44.352Z,11.52
2018-11-05T09:58:49.888Z,11.58
2018-11-05T09:59:55.423Z,11.47
2018-11-05T10:01:00.967Z,11.57
2018-11-05T10:02:06.505Z,11.51
2018-11-05T10:03:12.216Z,11.55
2018-11-05T10:04:17.738Z,11.54
2018-11-05T10:05:23.163Z,11.62
2018-11-05T10:06:28.646Z,11.54
2018-11-05T10:07:34.191Z,11.55
2018-11-05T10:08:39.720Z,11.61
2018-11-05T10:09:45.283Z,11.60
2018-11-05T10:10:50.810Z,11.65
2018-11-05T10:11:56.336Z,11.60
2018-11-05T10:13:01.875Z,11.65
2018-11-05T10:14:07.412Z,11.65
2018-11-05T10:15:12.947Z,11.65
2018-11-05T10:16:18.532Z,11.67
2018-11-05T10:17:24.024Z,11.69
2018-11-05T10:18:29.559Z,11.70
2018-11-05T10:19:35.094Z,11.73
2018-11-05T10:20:40.631Z,11.70
2018-11-05T10:21:46.170Z,11.69
2018-11-05T10:22:51.705Z,11.78
2018-11-05T10:23:57.249Z,11.72
2018-11-05T10:25:03.098Z,11.75
2018-11-05T10:26:08.368Z,11.72
2018-11-05T10:27:13.859Z,11.70
2018-11-05T10:28:19.394Z,11.78
2018-11-05T10:29:24.930Z,11.70
2018-11-05T10:30:30.474Z,11.75
2018-11-05T10:31:36.009Z,11.80
2018-11-05T10:32:41.597Z,11.78
2018-11-05T10:33:47.183Z,11.83
2018-11-05T10:34:52.619Z,11.83
2018-11-05T10:35:58.156Z,11.85
2018-11-05T10:37:03.698Z,11.83
2018-11-05T10:38:09.229Z,11.76
2018-11-05T10:39:14.769Z,11.75
2018-11-05T10:40:20.330Z,11.79
2018-11-05T10:41:25.842Z,11.86
2018-11-05T10:42:31.380Z,11.83
2018-11-05T10:43:36.923Z,11.85
2018-11-05T10:44:42.455Z,11.83
2018-11-05T10:45:47.995Z,11.82
2018-11-05T10:46:53.536Z,11.86
2018-11-05T10:47:59.074Z,11.91
2018-11-05T10:49:04.605Z,11.95
2018-11-05T10:50:10.148Z,11.86
2018-11-05T10:51:15.739Z,11.90
2018-11-05T10:52:21.307Z,11.98
2018-11-05T10:53:26.762Z,11.91
2018-11-05T10:54:32.290Z,11.95
2018-11-05T10:55:37.834Z,11.90
2018-11-05T10:56:43.378Z,11.95
2018-11-05T10:57:48.909Z,11.96
2018-11-05T10:58:54.440Z,12.02
2018-11-05T10:59:59.988Z,11.99
2018-11-05T11:01:05.524Z,11.98
2018-11-05T11:02:11.053Z,11.99
2018-11-05T11:03:16.594Z,12.02
2018-11-05T11:04:22.194Z,12.05
2018-11-05T11:05:27.670Z,12.05
2018-11-05T11:06:33.204Z,12.02
2018-11-05T11:07:38.741Z,12.05
2018-11-05T11:08:44.289Z,11.99
2018-11-05T11:09:49.817Z,11.98
2018-11-05T11:10:55.356Z,11.98
2018-11-05T11:12:00.896Z,12.01
2018-11-05T11:13:06.432Z,11.99
2018-11-05T11:14:11.965Z,12.02
2018-11-05T11:15:17.586Z,11.99
2018-11-05T11:16:23.043Z,11.99
2018-11-05T11:17:28.584Z,11.99
2018-11-05T11:18:34.123Z,12.02
2018-11-05T11:19:39.653Z,11.99
2018-11-05T11:20:45.198Z,12.05
2018-11-05T11:21:50.765Z,12.04
2018-11-05T11:22:56.272Z,12.10
2018-11-05T11:24:01.809Z,12.10
2018-11-05T11:25:07.347Z,12.09
2018-11-05T11:26:12.881Z,12.09
2018-11-05T11:27:18.419Z,12.05
2018-11-05T11:28:24.060Z,12.10
2018-11-05T11:29:29.651Z,12.10
2018-11-05T11:30:35.034Z,12.10
2018-11-05T11:31:40.566Z,12.13
2018-11-05T11:32:46.112Z,12.09
2018-11-05T11:33:51.644Z,12.16
2018-11-05T11:34:57.182Z,12.14
2018-11-05T11:36:02.719Z,12.16
2018-11-05T11:37:08.317Z,12.14
2018-11-05T11:38:13.793Z,12.07
2018-11-05T11:39:19.336Z,12.12
2018-11-05T11:40:24.866Z,12.16
2018-11-05T11:41:30.406Z,12.16
2018-11-05T11:42:35.946Z,12.10
2018-11-05T11:43:41.483Z,12.24
2018-11-05T11:44:47.092Z,12.24
2018-11-05T11:45:52.565Z,12.13
2018-11-05T11:46:58.095Z,12.27
2018-11-05T11:48:03.633Z,12.12
2018-11-05T11:49:09.172Z,12.14
2018-11-05T11:50:14.709Z,12.14
2018-11-05T11:51:20.244Z,12.12
2018-11-05T11:52:25.838Z,12.14
2018-11-05T11:53:31.413Z,12.20
2018-11-05T11:54:36.861Z,12.21
2018-11-05T11:55:42.398Z,12.20
2018-11-05T11:56:47.933Z,12.21
2018-11-05T11:57:53.477Z,12.19
2018-11-05T11:58:59.010Z,12.21
2018-11-05T12:00:04.548Z,12.21
2018-11-05T12:01:10.093Z,12.24
2018-11-05T12:02:15.705Z,12.23
2018-11-05T12:03:21.160Z,12.24
2018-11-05T12:04:26.701Z,12.28
2018-11-05T12:05:32.238Z,12.23
2018-11-05T12:06:37.772Z,12.19
2018-11-05T12:07:43.318Z,12.24
2018-11-05T12:08:48.847Z,12.28
2018-11-05T12:09:54.388Z,12.16
2018-11-05T12:10:59.930Z,12.16
2018-11-05T12:12:05.464Z,12.16
2018-11-05T12:13:11.010Z,12.13
2018-11-05T12:14:16.606Z,12.12
2018-11-05T12:15:22.076Z,12.23
2018-11-05T12:16:27.615Z,12.27
2018-11-05T12:17:33.158Z,12.27
2018-11-05T12:18:38.690Z,12.16
2018-11-05T12:19:44.233Z,12.28
2018-11-05T12:20:49.766Z,12.27
2018-11-05T12:21:55.308Z,12.24
2018-11-05T12:23:00.843Z,12.27
2018-11-05T12:24:06.381Z,12.31
2018-11-05T12:25:11.922Z,12.19
2018-11-05T12:26:17.456Z,12.27
2018-11-05T12:27:22.998Z,12.27
2018-11-05T12:28:28.533Z,12.38
2018-11-05T12:29:34.063Z,12.21
2018-11-05T12:30:39.608Z,12.24
2018-11-05T12:31:45.149Z,12.20
2018-11-05T12:32:50.682Z,12.34
2018-11-05T12:33:56.221Z,12.29
2018-11-05T12:35:01.757Z,12.32
2018-11-05T12:36:07.301Z,12.27
2018-11-05T12:37:12.834Z,12.32
2018-11-05T12:38:18.368Z,12.23
2018-11-05T12:39:23.907Z,12.38
2018-11-05T12:40:29.443Z,12.23
2018-11-05T12:41:34.986Z,12.32
2018-11-05T12:42:40.530Z,12.24
2018-11-05T12:43:46.060Z,12.34
2018-11-05T12:44:51.615Z,12.37
2018-11-05T12:45:57.136Z,12.19
2018-11-05T12:47:02.677Z,12.34
2018-11-05T12:48:08.214Z,12.24
2018-11-05T12:49:13.745Z,12.27
2018-11-05T12:50:19.288Z,12.29
2018-11-05T12:51:24.821Z,12.28
2018-11-05T12:52:30.364Z,12.32
2018-11-05T12:53:35.897Z,12.38
2018-11-05T12:54:41.436Z,12.20
2018-11-05T12:55:46.975Z,12.37
2018-11-05T12:56:52.514Z,12.31
2018-11-05T12:57:58.048Z,12.31
2018-11-05T12:59:03.593Z,12.31
2018-11-05T13:00:09.128Z,12.29
2018-11-05T13:01:14.660Z,12.34
2018-11-05T13:02:20.211Z,12.27
2018-11-05T13:03:25.734Z,12.38
2018-11-05T13:04:31.272Z,12.42
2018-11-05T13:05:36.819Z,12.31
2018-11-05T13:06:42.369Z,12.20
2018-11-05T13:07:47.890Z,12.23
2018-11-05T13:08:53.428Z,12.24
2018-11-05T13:09:58.967Z,12.28
2018-11-05T13:11:04.499Z,12.23
2018-11-05T13:12:10.035Z,12.35
2018-11-05T13:13:15.577Z,12.20
2018-11-05T13:14:21.118Z,12.23
2018-11-05T13:15:26.891Z,12.35
2018-11-05T13:16:32.191Z,12.24
2018-11-05T13:17:37.734Z,12.24
2018-11-05T13:18:43.308Z,12.20
2018-11-05T13:19:48.804Z,12.24
2018-11-05T13:20:54.340Z,12.29
2018-11-05T13:21:59.953Z,12.28
2018-11-05T13:23:05.421Z,12.24
2018-11-05T13:24:11.013Z,12.34
2018-11-05T13:25:16.488Z,12.29
2018-11-05T13:26:22.033Z,12.23
2018-11-05T13:27:27.573Z,12.29
2018-11-05T13:28:33.133Z,12.23
2018-11-05T13:29:38.669Z,12.27
2018-11-05T13:30:44.179Z,12.27
2018-11-05T13:31:49.717Z,12.27
2018-11-05T13:32:55.253Z,12.20
2018-11-05T13:34:00.797Z,12.16
2018-11-05T13:35:06.339Z,12.21
2018-11-05T13:36:11.870Z,12.23
2018-11-05T13:37:17.548Z,12.23
2018-11-05T13:38:22.998Z,12.24
2018-11-05T13:39:28.480Z,12.14
2018-11-05T13:40:34.020Z,12.27
2018-11-05T13:41:39.559Z,12.23
2018-11-05T13:42:45.094Z,12.24
2018-11-05T13:43:50.633Z,12.20
2018-11-05T13:44:56.226Z,12.24
2018-11-05T13:46:01.962Z,12.27
2018-11-05T13:47:07.790Z,12.16
2018-11-05T13:48:13.109Z,12.23
2018-11-05T13:49:18.371Z,12.13
2018-11-05T13:50:24.186Z,12.27
2018-11-05T13:51:29.400Z,12.24
2018-11-05T13:52:35.010Z,12.20
2018-11-05T13:53:40.477Z,12.23
2018-11-05T13:54:46.183Z,12.14
2018-11-05T13:55:51.551Z,12.20
2018-11-05T13:56:57.085Z,12.23
2018-11-05T13:58:02.626Z,12.13
2018-11-05T13:59:08.167Z,12.14
2018-11-05T14:00:13.694Z,12.12
2018-11-05T14:01:19.237Z,12.12
2018-11-05T14:02:24.778Z,12.13
2018-11-05T14:03:30.308Z,12.16
2018-11-05T14:04:35.889Z,12.12
2018-11-05T14:05:41.427Z,12.16
2018-11-05T14:06:46.922Z,12.09